Imperial, Nebraska
Current Conditions -  °F | °C
As of 8:53 AM on Sunday 21 Dec 2014 (Local Time) from KIML Reporting Station
Clear Clear  
Wind Chill: 26°   Ceiling: Unl
Heat Index: 32°   Visibility: 10mi
Dew Point: 26°   Wind: 6mph
Humidity: 79%   Direction: 200°SSW
Pressure: 29.69"   Gusts: NA
Location:  40.52°N, 101.64°W
Report Text: KIML 211553Z AUTO 20005KT 10SM CLR 00/M03 A2969 RMK AO2 SLP076 T00001033
Loading
Personal Weather Stations






























Interactive Weather Map New forecast layout! Learn more

10-Day Weather Forecast

Advertisements
Track Severe Weather on mobile